Latest Weather Observations for West Roebuck

IDW60801

Issued at 10:02 pm WST Tuesday 5 May 2015 (issued every 30 minutes, with the page automatically refreshed every 10 minutes)

About weather observations | Map of weather stations | Latest weather observations for WA | Other Formats
Station Details ID: 003096 Name: WEST ROEBUCK Lat: -17.90 Lon: 122.31 Height: 32.0 m
Data from the previous 72 hours. | See also: Recent months for locations in Western Australia
Date/Time
WST
Temp
°C
App
Temp
°C
Dew
Point
Rel
Hum
%
Delta-T
°C
Wind Press
QNH
hPa
Press
MSL
hPa
Rain
since 9 am
mm
Dir
 
Spd
km/h
Gust
km/h
Spd
kts
Gust
kts
05/10:00pm 24.8 - - - - SE 15 20 8 11 - - 0.0
05/09:30pm 25.3 - - - - SE 15 22 8 12 - - 0.0
05/09:00pm 25.4 - - - - SE 13 20 7 11 - - 0.0
05/08:30pm 25.6 - - - - SE 11 17 6 9 - - 0.0
05/08:00pm 26.6 - - - - SE 13 19 7 10 - - 0.0
05/07:30pm 27.2 - - - - SSE 13 19 7 10 - - 0.0
05/07:00pm 26.8 - - - - SSE 11 15 6 8 - - 0.0
05/06:30pm 27.5 - - - - SSE 11 13 6 7 - - 0.0
05/06:00pm 29.0 - - - - SE 13 17 7 9 - - 0.0
05/05:30pm 30.2 - - - - SE 9 15 5 8 - - 0.0
05/05:00pm 32.5 - - - - ESE 15 24 8 13 - - 0.0
05/04:30pm 33.7 - - - - ESE 13 19 7 10 - - 0.0
05/04:00pm 34.3 - - - - ESE 17 26 9 14 - - 0.0
05/03:30pm 34.7 - - - - ESE 17 28 9 15 - - 0.0
05/03:00pm 34.9 - - - - E 17 30 9 16 - - 0.0
05/02:30pm 35.2 - - - - ESE 17 28 9 15 - - 0.0
05/02:00pm 35.3 - - - - ESE 17 28 9 15 - - 0.0
05/01:30pm 35.4 - - - - ESE 17 30 9 16 - - 0.0
05/01:00pm 34.8 - - - - ESE 19 32 10 17 - - 0.0
05/12:30pm 34.6 - - - - E 20 35 11 19 - - 0.0
05/12:00pm 34.2 - - - - ESE 20 33 11 18 - - 0.0
05/11:30am 33.6 - - - - E 20 33 11 18 - - 0.0
05/11:00am 33.1 - - - - E 24 35 13 19 - - 0.0
05/10:30am 32.5 - - - - E 20 37 11 20 - - 0.0
05/10:00am 31.4 - - - - ESE 26 37 14 20 - - 0.0
05/09:30am 30.6 - - - - E 26 41 14 22 - - 0.0
05/09:00am 29.1 - - - - ESE 24 39 13 21 - - 0.0
05/08:30am 27.5 - - - - ESE 20 32 11 17 - - 0.0
05/08:00am 25.8 - - - - ESE 17 28 9 15 - - 0.0
05/07:30am 24.1 - - - - ESE 15 20 8 11 - - 0.0
05/07:00am 22.5 - - - - E 11 15 6 8 - - 0.0
05/06:30am 20.3 - - - - E 11 15 6 8 - - 0.0
05/06:00am 20.0 - - - - E 9 13 5 7 - - 0.0
05/05:30am 21.2 - - - - ESE 11 15 6 8 - - 0.0
05/05:00am 22.1 - - - - SE 11 17 6 9 - - 0.0
05/04:30am 22.5 - - - - SE 11 17 6 9 - - 0.0
05/04:00am 23.2 - - - - SE 13 20 7 11 - - 0.0
05/03:30am 22.8 - - - - SSE 11 13 6 7 - - 0.0
05/03:00am 23.2 - - - - S 11 15 6 8 - - 0.0
05/02:30am 23.7 - - - - SSW 9 13 5 7 - - 0.0
05/02:00am 23.8 - - - - SW 11 13 6 7 - - 0.0
05/01:30am 24.0 - - - - SW 9 13 5 7 - - 0.0
05/01:00am 24.3 - - - - SSW 7 9 4 5 - - 0.0
05/12:30am 24.4 - - - - SSW 7 11 4 6 - - 0.0
05/12:00am 24.3 - - - - SSW 7 9 4 5 - - 0.0
 
Date/Time
WST
Temp
°C
App
Temp
°C
Dew
Point
Rel
Hum
%
Delta-T
°C
Wind Press
QNH
hPa
Press
MSL
hPa
Rain
since 9 am
mm
Dir
 
Spd
km/h
Gust
km/h
Spd
kts
Gust
kts
04/11:30pm 24.2 - - - - SSW 9 11 5 6 - - 0.0
04/11:00pm 24.2 - - - - SSW 7 9 4 5 - - 0.0
04/10:30pm 24.2 - - - - SW 9 11 5 6 - - 0.0
04/10:00pm 24.2 - - - - SW 9 11 5 6 - - 0.0
04/09:30pm 24.4 - - - - SW 9 11 5 6 - - 0.0
04/09:00pm 24.8 - - - - SW 11 13 6 7 - - 0.0
04/08:30pm 24.9 - - - - SW 11 13 6 7 - - 0.0
04/08:00pm 24.8 - - - - SW 11 13 6 7 - - 0.0
04/07:30pm 24.4 - - - - SW 7 9 4 5 - - 0.0
04/07:00pm 24.9 - - - - SW 6 9 3 5 - - 0.0
04/06:30pm 25.5 - - - - SW 9 11 5 6 - - 0.0
04/06:00pm 26.0 - - - - SW 9 15 5 8 - - 0.0
04/05:30pm 26.7 - - - - WSW 13 19 7 10 - - 0.0
04/05:00pm 27.8 - - - - WSW 15 20 8 11 - - 0.0
04/04:30pm 28.4 - - - - WSW 17 24 9 13 - - 0.0
04/04:00pm 29.3 - - - - WSW 17 24 9 13 - - 0.0
04/03:30pm 29.6 - - - - WSW 19 24 10 13 - - 0.0
04/03:00pm 31.2 - - - - WSW 13 20 7 11 - - 0.0
04/02:30pm 31.2 - - - - WSW 15 24 8 13 - - 0.0
04/02:00pm 31.9 - - - - WSW 15 20 8 11 - - 0.0
04/01:30pm 32.1 - - - - SW 13 20 7 11 - - 0.0
04/01:00pm 31.7 - - - - SSW 11 20 6 11 - - 0.0
04/12:30pm 31.3 - - - - SSW 13 22 7 12 - - 0.0
04/12:00pm 31.1 - - - - SSW 15 22 8 12 - - 0.0
04/11:30am 30.5 - - - - S 13 22 7 12 - - 0.0
04/11:00am 29.9 - - - - SSE 13 19 7 10 - - 0.0
04/10:30am 29.1 - - - - S 11 17 6 9 - - 0.0
04/10:00am 28.3 - - - - S 13 17 7 9 - - 0.0
04/09:30am 27.1 - - - - S 13 22 7 12 - - 0.0
04/09:00am 26.7 - - - - S 13 20 7 11 - - 0.2
04/08:30am 25.2 - - - - SSE 9 17 5 9 - - 0.2
04/08:00am 23.9 - - - - S 13 20 7 11 - - 0.2
04/07:30am 23.6 - - - - S 13 17 7 9 - - 0.2
04/07:00am 22.8 - - - - SSE 6 7 3 4 - - 0.2
04/06:30am 22.6 - - - - ESE 4 7 2 4 - - 0.2
04/06:00am 22.6 - - - - CALM 0 0 0 0 - - 0.0
04/05:30am 22.4 - - - - SE 6 7 3 4 - - 0.0
04/05:00am 22.1 - - - - E 6 7 3 4 - - 0.0
04/04:30am 21.9 - - - - ESE 6 9 3 5 - - 0.0
04/04:00am 21.9 - - - - ESE 7 9 4 5 - - 0.0
04/03:30am 21.4 - - - - SE 7 9 4 5 - - 0.0
04/03:00am 21.7 - - - - CALM 0 0 0 0 - - 0.0
04/02:30am 21.9 - - - - SW 6 6 3 3 - - 0.0
04/02:00am 21.8 - - - - WSW 2 6 1 3 - - 0.0
04/01:30am 21.9 - - - - W 6 7 3 4 - - 0.0
04/01:00am 22.2 - - - - W 6 7 3 4 - - 0.0
04/12:30am 22.1 - - - - WNW 7 7 4 4 - - 0.0
04/12:00am 22.1 - - - - NW 7 7 4 4 - - 0.0
 
Date/Time
WST
Temp
°C
App
Temp
°C
Dew
Point
Rel
Hum
%
Delta-T
°C
Wind Press
QNH
hPa
Press
MSL
hPa
Rain
since 9 am
mm
Dir
 
Spd
km/h
Gust
km/h
Spd
kts
Gust
kts
03/11:30pm 22.2 - - - - NNW 6 6 3 3 - - 0.0
03/11:00pm 22.9 - - - - WNW 6 6 3 3 - - 0.0
03/10:30pm 23.2 - - - - W 7 9 4 5 - - 0.0
03/10:00pm 23.3 - - - - WSW 7 9 4 5 - - 0.0
03/09:30pm 23.6 - - - - WSW 9 9 5 5 - - 0.0
03/09:00pm 23.5 - - - - WSW 7 9 4 5 - - 0.0
03/08:30pm 23.7 - - - - WSW 9 9 5 5 - - 0.0
03/08:00pm 23.8 - - - - WSW 9 9 5 5 - - 0.0
03/07:30pm 23.7 - - - - W 9 9 5 5 - - 0.0
03/07:00pm 23.9 - - - - WNW 9 9 5 5 - - 0.0
03/06:30pm 24.3 - - - - WNW 9 11 5 6 - - 0.0
03/06:00pm 25.0 - - - - WNW 9 11 5 6 - - 0.0
03/05:30pm 25.9 - - - - W 13 17 7 9 - - 0.0
03/05:00pm 27.2 - - - - WSW 17 22 9 12 - - 0.0
03/04:30pm 28.5 - - - - WSW 15 20 8 11 - - 0.0
03/04:00pm 29.4 - - - - WSW 13 20 7 11 - - 0.0
03/03:30pm 30.2 - - - - WSW 15 19 8 10 - - 0.0
03/03:00pm 30.7 - - - - WSW 15 22 8 12 - - 0.0
03/02:30pm 30.9 - - - - SW 17 22 9 12 - - 0.0
03/02:00pm 31.7 - - - - WSW 13 20 7 11 - - 0.0
03/01:30pm 31.9 - - - - SW 13 19 7 10 - - 0.0
03/01:00pm 31.6 - - - - WSW 13 20 7 11 - - 0.0
03/12:30pm 31.4 - - - - WSW 13 20 7 11 - - 0.0
03/12:00pm 31.2 - - - - WSW 15 20 8 11 - - 0.0
03/11:30am 30.2 - - - - SW 7 17 4 9 - - 0.0
03/11:00am 30.5 - - - - WSW 6 11 3 6 - - 0.0
03/10:30am 29.9 - - - - WSW 9 13 5 7 - - 0.0
03/10:00am 28.4 - - - - ESE 6 9 3 5 - - 0.0
03/09:30am 26.8 - - - - E 6 11 3 6 - - 0.0
03/09:00am 24.3 - - - - E 6 9 3 5 - - 0.0
03/08:30am 23.9 - - - - ESE 6 9 3 5 - - 0.0
03/08:00am 23.2 - - - - ENE 6 9 3 5 - - 0.0
03/07:30am 22.7 - - - - ENE 7 9 4 5 - - 0.0
03/07:00am 21.9 - - - - E 6 9 3 5 - - 0.0
03/06:30am 21.3 - - - - ENE 7 9 4 5 - - 0.0
03/06:00am 20.9 - - - - E 7 9 4 5 - - 0.0
03/05:30am 20.6 - - - - E 9 9 5 5 - - 0.0
03/05:00am 20.5 - - - - ESE 7 9 4 5 - - 0.0
03/04:30am 20.2 - - - - ESE 7 9 4 5 - - 0.0
03/04:00am 19.9 - - - - E 7 9 4 5 - - 0.0
03/03:30am 19.9 - - - - E 7 9 4 5 - - 0.0
03/03:00am 20.1 - - - - E 9 11 5 6 - - 0.0
03/02:30am 20.8 - - - - CALM 0 0 0 0 - - 0.0
03/02:00am 20.8 - - - - NNW 4 6 2 3 - - 0.0
03/01:30am 20.7 - - - - N 6 7 3 4 - - 0.0
03/01:00am 20.8 - - - - NNE 2 6 1 3 - - 0.0
03/12:30am 20.8 - - - - NNE 6 6 3 3 - - 0.0
03/12:00am 21.0 - - - - NNE 2 6 1 3 - - 0.0
 
Date/Time
WST
Temp
°C
App
Temp
°C
Dew
Point
Rel
Hum
%
Delta-T
°C
Wind Press
QNH
hPa
Press
MSL
hPa
Rain
since 9 am
mm
Dir
 
Spd
km/h
Gust
km/h
Spd
kts
Gust
kts
02/11:30pm 21.3 - - - - NNE 7 9 4 5 - - 0.0
02/11:00pm 22.0 - - - - NE 9 11 5 6 - - 0.0
02/10:30pm 22.2 - - - - NNE 9 9 5 5 - - 0.0

Other Formats:

Comma delimited format used in spreadsheet applications
http://www.bom.gov.au/fwo/IDW60801/IDW60801.95204.axf

JavaScript Object Notation format (JSON) in row-major order
http://www.bom.gov.au/fwo/IDW60801/IDW60801.95204.json